createdAt,value
2018-05-17T00:00:40.255Z,1011.14
2018-05-17T00:01:40.238Z,1011.16
2018-05-17T00:02:40.222Z,1011.18
2018-05-17T00:03:40.208Z,1011.14
2018-05-17T00:04:40.192Z,1011.17
2018-05-17T00:05:40.176Z,1011.19
2018-05-17T00:06:40.161Z,1011.17
2018-05-17T00:07:40.143Z,1011.2
2018-05-17T00:08:40.133Z,1011.2
2018-05-17T00:09:40.116Z,1011.18
2018-05-17T00:10:40.100Z,1011.2
2018-05-17T00:11:40.084Z,1011.23
2018-05-17T00:12:40.073Z,1011.22
2018-05-17T00:13:40.055Z,1011.18
2018-05-17T00:14:40.041Z,1011.23
2018-05-17T00:15:40.228Z,1011.22
2018-05-17T00:16:40.009Z,1011.19
2018-05-17T00:17:39.995Z,1011.21
2018-05-17T00:18:39.980Z,1011.22
2018-05-17T00:19:39.964Z,1011.23
2018-05-17T00:20:39.955Z,1011.24
2018-05-17T00:21:39.933Z,1011.26
2018-05-17T00:22:39.920Z,1011.24
2018-05-17T00:23:39.968Z,1011.26
2018-05-17T00:24:39.888Z,1011.21
2018-05-17T00:25:39.877Z,1011.24
2018-05-17T00:26:39.856Z,1011.27
2018-05-17T00:27:39.842Z,1011.21
2018-05-17T00:28:39.831Z,1011.22
2018-05-17T00:29:39.810Z,1011.2
2018-05-17T00:30:39.798Z,1011.27
2018-05-17T00:31:39.783Z,1011.25
2018-05-17T00:32:39.768Z,1011.29
2018-05-17T00:33:39.750Z,1011.26
2018-05-17T00:34:39.742Z,1011.29
2018-05-17T00:35:39.804Z,1011.28
2018-05-17T00:36:39.705Z,1011.26
2018-05-17T00:37:39.690Z,1011.34
2018-05-17T00:38:39.676Z,1011.33
2018-05-17T00:39:39.660Z,1011.31
2018-05-17T00:40:39.645Z,1011.32
2018-05-17T00:41:39.625Z,1011.33
2018-05-17T00:42:39.615Z,1011.35
2018-05-17T00:43:39.595Z,1011.34
2018-05-17T00:44:39.581Z,1011.36
2018-05-17T00:45:39.565Z,1011.35
2018-05-17T00:46:39.551Z,1011.38
2018-05-17T00:47:39.539Z,1011.34
2018-05-17T00:48:39.527Z,1011.31
2018-05-17T00:49:39.519Z,1011.34
2018-05-17T00:50:39.498Z,1011.33
2018-05-17T00:51:39.476Z,1011.31
2018-05-17T00:52:39.459Z,1011.36
2018-05-17T00:53:39.443Z,1011.35
2018-05-17T00:54:39.429Z,1011.32
2018-05-17T00:55:39.411Z,1011.36
2018-05-17T00:56:39.395Z,1011.34
2018-05-17T00:57:39.380Z,1011.37
2018-05-17T00:58:39.365Z,1011.31
2018-05-17T00:59:39.351Z,1011.29
2018-05-17T01:00:39.336Z,1011.28
2018-05-17T01:01:39.318Z,1011.27
2018-05-17T01:02:39.305Z,1011.29
2018-05-17T01:03:39.287Z,1011.29
2018-05-17T01:04:39.272Z,1011.26
2018-05-17T01:05:39.257Z,1011.2
2018-05-17T01:06:39.243Z,1011.24
2018-05-17T01:07:39.226Z,1011.23
2018-05-17T01:08:39.211Z,1011.26
2018-05-17T01:09:39.201Z,1011.2
2018-05-17T01:10:39.179Z,1011.25
2018-05-17T01:11:39.164Z,1011.24
2018-05-17T01:12:39.147Z,1011.24
2018-05-17T01:13:39.131Z,1011.26
2018-05-17T01:14:39.118Z,1011.28
2018-05-17T01:15:39.108Z,1011.26
2018-05-17T01:16:39.094Z,1011.32
2018-05-17T01:17:39.071Z,1011.27
2018-05-17T01:18:39.059Z,1011.31
2018-05-17T01:19:39.040Z,1011.29
2018-05-17T01:20:39.027Z,1011.27
2018-05-17T01:21:39.012Z,1011.29
2018-05-17T01:22:38.997Z,1011.34
2018-05-17T01:23:38.979Z,1011.3
2018-05-17T01:24:38.964Z,1011.3
2018-05-17T01:25:38.950Z,1011.3
2018-05-17T01:26:38.938Z,1011.32
2018-05-17T01:27:38.917Z,1011.3
2018-05-17T01:28:38.902Z,1011.29
2018-05-17T01:29:38.887Z,1011.32
2018-05-17T01:30:38.870Z,1011.36
2018-05-17T01:31:38.855Z,1011.33
2018-05-17T01:32:38.839Z,1011.37
2018-05-17T01:33:38.831Z,1011.35
2018-05-17T01:34:38.808Z,1011.32
2018-05-17T01:35:38.792Z,1011.38
2018-05-17T01:36:38.777Z,1011.36
2018-05-17T01:37:38.763Z,1011.34
2018-05-17T01:38:38.747Z,1011.35
2018-05-17T01:39:38.731Z,1011.37
2018-05-17T01:40:38.716Z,1011.36
2018-05-17T01:41:38.700Z,1011.32
2018-05-17T01:42:38.685Z,1011.31
2018-05-17T01:43:38.668Z,1011.31
2018-05-17T01:44:38.653Z,1011.29
2018-05-17T01:45:38.639Z,1011.3
2018-05-17T01:46:38.623Z,1011.35
2018-05-17T01:47:38.608Z,1011.33
2018-05-17T01:48:38.593Z,1011.36
2018-05-17T01:49:38.577Z,1011.36
2018-05-17T01:50:38.561Z,1011.35
2018-05-17T01:51:38.545Z,1011.38
2018-05-17T01:52:38.531Z,1011.37
2018-05-17T01:53:38.514Z,1011.31
2018-05-17T01:54:38.499Z,1011.36
2018-05-17T01:55:38.483Z,1011.35
2018-05-17T01:56:38.469Z,1011.4
2018-05-17T01:57:38.451Z,1011.4
2018-05-17T01:58:38.436Z,1011.33
2018-05-17T01:59:38.425Z,1011.33
2018-05-17T02:00:38.406Z,1011.37
2018-05-17T02:01:38.393Z,1011.34
2018-05-17T02:02:38.375Z,1011.33
2018-05-17T02:03:38.359Z,1011.31
2018-05-17T02:04:38.343Z,1011.35
2018-05-17T02:05:38.327Z,1011.39
2018-05-17T02:06:38.313Z,1011.4
2018-05-17T02:07:38.296Z,1011.41
2018-05-17T02:08:38.282Z,1011.43
2018-05-17T02:09:38.265Z,1011.45
2018-05-17T02:10:38.251Z,1011.41
2018-05-17T02:11:38.239Z,1011.48
2018-05-17T02:12:38.219Z,1011.47
2018-05-17T02:13:38.202Z,1011.44
2018-05-17T02:14:38.187Z,1011.5
2018-05-17T02:15:38.373Z,1011.47
2018-05-17T02:16:38.154Z,1011.51
2018-05-17T02:17:38.139Z,1011.49
2018-05-17T02:18:38.124Z,1011.55
2018-05-17T02:19:38.109Z,1011.49
2018-05-17T02:20:38.092Z,1011.55
2018-05-17T02:21:38.084Z,1011.53
2018-05-17T02:22:38.065Z,1011.53
2018-05-17T02:23:38.046Z,1011.54
2018-05-17T02:24:38.030Z,1011.54
2018-05-17T02:25:38.016Z,1011.51
2018-05-17T02:26:37.998Z,1011.52
2018-05-17T02:27:37.982Z,1011.53
2018-05-17T02:28:37.969Z,1011.53
2018-05-17T02:29:37.956Z,1011.56
2018-05-17T02:30:37.942Z,1011.57
2018-05-17T02:31:37.923Z,1011.61
2018-05-17T02:32:37.909Z,1011.59
2018-05-17T02:33:37.893Z,1011.61
2018-05-17T02:34:37.872Z,1011.61
2018-05-17T02:35:37.859Z,1011.6
2018-05-17T02:36:37.844Z,1011.64
2018-05-17T02:37:37.827Z,1011.61
2018-05-17T02:38:37.810Z,1011.63
2018-05-17T02:39:37.797Z,1011.62
2018-05-17T02:40:37.784Z,1011.62
2018-05-17T02:41:37.774Z,1011.62
2018-05-17T02:42:37.749Z,1011.6
2018-05-17T02:43:37.732Z,1011.61
2018-05-17T02:44:37.718Z,1011.63
2018-05-17T02:45:37.703Z,1011.63
2018-05-17T02:46:37.686Z,1011.61
2018-05-17T02:47:37.672Z,1011.58
2018-05-17T02:48:37.655Z,1011.63
2018-05-17T02:49:37.642Z,1011.63
2018-05-17T02:50:37.624Z,1011.57
2018-05-17T02:51:37.608Z,1011.58
2018-05-17T02:52:37.591Z,1011.53
2018-05-17T02:53:37.581Z,1011.57
2018-05-17T02:54:37.565Z,1011.58
2018-05-17T02:55:37.543Z,1011.57
2018-05-17T02:56:37.528Z,1011.6
2018-05-17T02:57:37.515Z,1011.58
2018-05-17T02:58:37.497Z,1011.62
2018-05-17T02:59:37.481Z,1011.59
2018-05-17T03:00:37.466Z,1011.62
2018-05-17T03:01:37.451Z,1011.66
2018-05-17T03:02:37.433Z,1011.61
2018-05-17T03:03:37.419Z,1011.66
2018-05-17T03:04:37.403Z,1011.59
2018-05-17T03:05:37.387Z,1011.66
2018-05-17T03:06:37.371Z,1011.63
2018-05-17T03:07:37.355Z,1011.65
2018-05-17T03:08:37.338Z,1011.65
2018-05-17T03:09:37.325Z,1011.68
2018-05-17T03:10:37.321Z,1011.69
2018-05-17T03:11:37.290Z,1011.71
2018-05-17T03:12:37.282Z,1011.69
2018-05-17T03:13:37.259Z,1011.75
2018-05-17T03:14:37.243Z,1011.7
2018-05-17T03:15:37.227Z,1011.7
2018-05-17T03:16:37.211Z,1011.75
2018-05-17T03:17:37.193Z,1011.75
2018-05-17T03:18:37.180Z,1011.8
2018-05-17T03:19:37.166Z,1011.77
2018-05-17T03:20:37.148Z,1011.82
2018-05-17T03:21:37.130Z,1011.82
2018-05-17T03:22:37.114Z,1011.81
2018-05-17T03:23:37.098Z,1011.81
2018-05-17T03:24:37.085Z,1011.83
2018-05-17T03:25:37.067Z,1011.85
2018-05-17T03:26:37.051Z,1011.85
2018-05-17T03:27:37.035Z,1011.82
2018-05-17T03:28:37.017Z,1011.82
2018-05-17T03:29:37.002Z,1011.84
2018-05-17T03:30:36.988Z,1011.8
2018-05-17T03:31:36.971Z,1011.77
2018-05-17T03:32:36.954Z,1011.81
2018-05-17T03:33:36.938Z,1011.81
2018-05-17T03:34:36.922Z,1011.83
2018-05-17T03:35:36.907Z,1011.81
2018-05-17T03:36:36.891Z,1011.83
2018-05-17T03:37:36.877Z,1011.82
2018-05-17T03:38:36.861Z,1011.77
2018-05-17T03:39:36.843Z,1011.79
2018-05-17T03:40:36.827Z,1011.76
2018-05-17T03:41:36.812Z,1011.77
2018-05-17T03:42:36.800Z,1011.81
2018-05-17T03:43:36.780Z,1011.82
2018-05-17T03:44:36.765Z,1011.81
2018-05-17T03:45:36.747Z,1011.8
2018-05-17T03:46:36.732Z,1011.81
2018-05-17T03:47:36.718Z,1011.77
2018-05-17T03:48:36.699Z,1011.79
2018-05-17T03:49:36.682Z,1011.79
2018-05-17T03:50:36.666Z,1011.78
2018-05-17T03:51:36.651Z,1011.8
2018-05-17T03:52:36.636Z,1011.79
2018-05-17T03:53:36.624Z,1011.85
2018-05-17T03:54:36.602Z,1011.81
2018-05-17T03:55:36.589Z,1011.84
2018-05-17T03:56:36.571Z,1011.81
2018-05-17T03:57:36.557Z,1011.83
2018-05-17T03:58:36.542Z,1011.82
2018-05-17T03:59:36.524Z,1011.8
2018-05-17T04:00:36.509Z,1011.78
2018-05-17T04:01:36.490Z,1011.76
2018-05-17T04:02:36.477Z,1011.76
2018-05-17T04:03:36.462Z,1011.75
2018-05-17T04:04:36.448Z,1011.76
2018-05-17T04:05:36.429Z,1011.7
2018-05-17T04:06:36.412Z,1011.72
2018-05-17T04:07:36.398Z,1011.74
2018-05-17T04:08:36.484Z,1011.7
2018-05-17T04:09:36.363Z,1011.73
2018-05-17T04:10:36.350Z,1011.75
2018-05-17T04:11:36.333Z,1011.71
2018-05-17T04:12:36.317Z,1011.72
2018-05-17T04:13:36.300Z,1011.69
2018-05-17T04:14:36.285Z,1011.77
2018-05-17T04:15:36.475Z,1011.81
2018-05-17T04:16:36.253Z,1011.76
2018-05-17T04:17:36.238Z,1011.78
2018-05-17T04:18:36.222Z,1011.76
2018-05-17T04:19:36.207Z,1011.79
2018-05-17T04:20:36.192Z,1011.82
2018-05-17T04:21:36.180Z,1011.78
2018-05-17T04:22:36.161Z,1011.84
2018-05-17T04:23:36.145Z,1011.83
2018-05-17T04:24:36.130Z,1011.82
2018-05-17T04:25:36.116Z,1011.82
2018-05-17T04:26:36.097Z,1011.85
2018-05-17T04:27:36.080Z,1011.86
2018-05-17T04:28:36.066Z,1011.88
2018-05-17T04:29:36.047Z,1011.89
2018-05-17T04:30:36.033Z,1011.91
2018-05-17T04:31:36.017Z,1011.94
2018-05-17T04:32:36.000Z,1011.89
2018-05-17T04:33:35.985Z,1011.94
2018-05-17T04:34:35.970Z,1011.96
2018-05-17T04:35:35.952Z,1011.92
2018-05-17T04:36:35.938Z,1011.92
2018-05-17T04:37:35.926Z,1011.92
2018-05-17T04:38:35.909Z,1011.94
2018-05-17T04:39:35.894Z,1011.94
2018-05-17T04:40:35.879Z,1011.94
2018-05-17T04:41:35.867Z,1011.88
2018-05-17T04:42:35.844Z,1011.95
2018-05-17T04:43:35.825Z,1011.94
2018-05-17T04:44:35.810Z,1011.91
2018-05-17T04:45:35.802Z,1011.95
2018-05-17T04:46:35.787Z,1011.91
2018-05-17T04:47:35.771Z,1011.91
2018-05-17T04:48:35.753Z,1011.92
2018-05-17T04:49:35.733Z,1011.92
2018-05-17T04:50:35.716Z,1011.97
2018-05-17T04:51:35.704Z,1011.94
2018-05-17T04:52:35.686Z,1012.03
2018-05-17T04:53:35.668Z,1011.96
2018-05-17T04:54:35.657Z,1012.06
2018-05-17T04:55:35.638Z,1012.1
2018-05-17T04:56:35.621Z,1012.05
2018-05-17T04:57:35.609Z,1012.05
2018-05-17T04:58:35.590Z,1012.1
2018-05-17T04:59:35.578Z,1012.08
2018-05-17T05:00:35.559Z,1012.09
2018-05-17T05:01:35.542Z,1012.05
2018-05-17T05:02:35.555Z,1012.13
2018-05-17T05:03:35.509Z,1012.04
2018-05-17T05:04:35.495Z,1012.02
2018-05-17T05:05:35.482Z,1012.02
2018-05-17T05:06:35.465Z,1012
2018-05-17T05:07:35.450Z,1012.03
2018-05-17T05:08:35.438Z,1011.95
2018-05-17T05:09:35.418Z,1011.95
2018-05-17T05:10:35.403Z,1011.94
2018-05-17T05:11:35.386Z,1011.94
2018-05-17T05:12:35.369Z,1011.98
2018-05-17T05:13:35.354Z,1011.95
2018-05-17T05:14:35.338Z,1012
2018-05-17T05:15:35.324Z,1011.95
2018-05-17T05:16:35.307Z,1011.99
2018-05-17T05:17:35.292Z,1011.97
2018-05-17T05:18:35.274Z,1012
2018-05-17T05:19:35.258Z,1012.02
2018-05-17T05:20:35.244Z,1012.04
2018-05-17T05:21:35.234Z,1011.96
2018-05-17T05:22:35.213Z,1012.01
2018-05-17T05:23:35.197Z,1012.04
2018-05-17T05:24:35.182Z,1012.06
2018-05-17T05:25:35.168Z,1012.01
2018-05-17T05:26:35.151Z,1012.03
2018-05-17T05:27:35.135Z,1012.03
2018-05-17T05:28:35.120Z,1012.02
2018-05-17T05:29:35.106Z,1012.05
2018-05-17T05:30:35.089Z,1012.05
2018-05-17T05:31:35.092Z,1012.05
2018-05-17T05:32:35.057Z,1012.1
2018-05-17T05:33:35.042Z,1012.07
2018-05-17T05:34:35.112Z,1012.11
2018-05-17T05:35:35.012Z,1012.12
2018-05-17T05:36:34.997Z,1012.1
2018-05-17T05:37:35.058Z,1012.1
2018-05-17T05:38:34.966Z,1012.07
2018-05-17T05:39:34.950Z,1012.12
2018-05-17T05:40:34.934Z,1012.07
2018-05-17T05:41:34.920Z,1012.15
2018-05-17T05:42:34.906Z,1012.17
2018-05-17T05:43:34.888Z,1012.18
2018-05-17T05:44:34.872Z,1012.11
2018-05-17T05:45:34.863Z,1012.17
2018-05-17T05:46:34.841Z,1012.18
2018-05-17T05:47:34.828Z,1012.17
2018-05-17T05:48:34.812Z,1012.17
2018-05-17T05:49:34.848Z,1012.15
2018-05-17T05:50:34.783Z,1012.16
2018-05-17T05:51:34.765Z,1012.22
2018-05-17T05:52:34.753Z,1012.22
2018-05-17T05:53:34.737Z,1012.25
2018-05-17T05:54:34.727Z,1012.22
2018-05-17T05:55:34.707Z,1012.25
2018-05-17T05:56:34.694Z,1012.26
2018-05-17T05:57:34.678Z,1012.3
2018-05-17T05:58:34.667Z,1012.33
2018-05-17T05:59:34.650Z,1012.34
2018-05-17T06:00:34.632Z,1012.27
2018-05-17T06:01:34.618Z,1012.3
2018-05-17T06:02:34.600Z,1012.32
2018-05-17T06:03:34.591Z,1012.37
2018-05-17T06:04:34.572Z,1012.37
2018-05-17T06:05:34.559Z,1012.37
2018-05-17T06:06:34.543Z,1012.35
2018-05-17T06:07:34.527Z,1012.36
2018-05-17T06:08:34.514Z,1012.36
2018-05-17T06:09:34.504Z,1012.3
2018-05-17T06:10:34.483Z,1012.35
2018-05-17T06:11:34.468Z,1012.34
2018-05-17T06:12:34.462Z,1012.33
2018-05-17T06:13:34.440Z,1012.35
2018-05-17T06:14:34.428Z,1012.33
2018-05-17T06:15:34.409Z,1012.32
2018-05-17T06:16:34.394Z,1012.36
2018-05-17T06:17:34.380Z,1012.39
2018-05-17T06:18:34.366Z,1012.38
2018-05-17T06:19:34.350Z,1012.41
2018-05-17T06:20:34.333Z,1012.38
2018-05-17T06:21:34.320Z,1012.39
2018-05-17T06:22:34.309Z,1012.41
2018-05-17T06:23:34.291Z,1012.36
2018-05-17T06:24:34.278Z,1012.39
2018-05-17T06:25:34.262Z,1012.37
2018-05-17T06:26:34.247Z,1012.37
2018-05-17T06:27:34.233Z,1012.35
2018-05-17T06:28:34.217Z,1012.38
2018-05-17T06:29:34.204Z,1012.37
2018-05-17T06:30:34.189Z,1012.36
2018-05-17T06:31:34.176Z,1012.37
2018-05-17T06:32:34.161Z,1012.4
2018-05-17T06:33:34.149Z,1012.4
2018-05-17T06:34:34.131Z,1012.4
2018-05-17T06:35:34.119Z,1012.43
2018-05-17T06:36:34.103Z,1012.41
2018-05-17T06:37:34.093Z,1012.5
2018-05-17T06:38:34.075Z,1012.45
2018-05-17T06:39:34.063Z,1012.49
2018-05-17T06:40:34.046Z,1012.47
2018-05-17T06:41:34.041Z,1012.42
2018-05-17T06:42:34.032Z,1012.44
2018-05-17T06:43:34.002Z,1012.44
2018-05-17T06:44:33.991Z,1012.45
2018-05-17T06:45:33.979Z,1012.46
2018-05-17T06:46:33.967Z,1012.45
2018-05-17T06:47:33.957Z,1012.47
2018-05-17T06:48:33.933Z,1012.57
2018-05-17T06:49:33.917Z,1012.46
2018-05-17T06:50:33.903Z,1012.5
2018-05-17T06:51:33.894Z,1012.51
2018-05-17T06:52:33.875Z,1012.53
2018-05-17T06:53:33.862Z,1012.5
2018-05-17T06:54:33.848Z,1012.48
2018-05-17T06:55:33.833Z,1012.47
2018-05-17T06:56:33.819Z,1012.47
2018-05-17T06:57:33.804Z,1012.47
2018-05-17T06:58:33.792Z,1012.46
2018-05-17T06:59:33.775Z,1012.49
2018-05-17T07:00:33.837Z,1012.48
2018-05-17T07:01:33.825Z,1012.47
2018-05-17T07:02:33.738Z,1012.5
2018-05-17T07:03:33.720Z,1012.47
2018-05-17T07:04:33.705Z,1012.5
2018-05-17T07:05:33.691Z,1012.49
2018-05-17T07:06:33.678Z,1012.56
2018-05-17T07:07:33.663Z,1012.49
2018-05-17T07:08:33.650Z,1012.52
2018-05-17T07:09:33.636Z,1012.56
2018-05-17T07:10:33.696Z,1012.53
2018-05-17T07:11:33.606Z,1012.49
2018-05-17T07:12:33.603Z,1012.49
2018-05-17T07:13:33.578Z,1012.55
2018-05-17T07:14:33.566Z,1012.5
2018-05-17T07:15:33.552Z,1012.52
2018-05-17T07:16:33.537Z,1012.52
2018-05-17T07:17:33.525Z,1012.59
2018-05-17T07:18:33.854Z,1012.58
2018-05-17T07:19:33.494Z,1012.55
2018-05-17T07:20:33.482Z,1012.54
2018-05-17T07:21:33.469Z,1012.53
2018-05-17T07:22:33.451Z,1012.57
2018-05-17T07:23:33.439Z,1012.53
2018-05-17T07:24:33.428Z,1012.66
2018-05-17T07:25:33.412Z,1012.78
2018-05-17T07:26:33.397Z,1012.62
2018-05-17T07:27:33.383Z,1012.63
2018-05-17T07:28:33.371Z,1012.54
2018-05-17T07:29:33.357Z,1012.62
2018-05-17T07:30:33.346Z,1012.62
2018-05-17T07:31:33.337Z,1012.62
2018-05-17T07:32:33.321Z,1012.78
2018-05-17T07:33:33.315Z,1012.6
2018-05-17T07:34:33.295Z,1012.59
2018-05-17T07:35:33.282Z,1012.69
2018-05-17T07:36:33.273Z,1012.63
2018-05-17T07:37:33.260Z,1012.81
2018-05-17T07:38:33.243Z,1012.65
2018-05-17T07:39:33.232Z,1012.72
2018-05-17T07:40:33.221Z,1012.65
2018-05-17T07:41:33.208Z,1012.65
2018-05-17T07:42:33.197Z,1012.94
2018-05-17T07:43:33.187Z,1012.72
2018-05-17T07:44:33.173Z,1012.66
2018-05-17T07:45:33.159Z,1012.83
2018-05-17T07:46:33.147Z,1012.91
2018-05-17T07:47:33.217Z,1012.96
2018-05-17T07:48:33.127Z,1012.94
2018-05-17T07:49:33.114Z,1012.92
2018-05-17T07:50:33.116Z,1013.02
2018-05-17T07:51:33.096Z,1013.04
2018-05-17T07:52:33.087Z,1012.82
2018-05-17T07:53:33.079Z,1012.69
2018-05-17T07:54:33.067Z,1012.74
2018-05-17T07:55:33.217Z,1012.69
2018-05-17T07:56:33.049Z,1012.69
2018-05-17T07:57:33.043Z,1012.74
2018-05-17T07:58:33.032Z,1012.74
2018-05-17T07:59:33.027Z,1012.73
2018-05-17T08:00:33.066Z,1012.75
2018-05-17T08:01:33.003Z,1012.75
2018-05-17T08:02:32.998Z,1012.71
2018-05-17T08:03:32.984Z,1012.72
2018-05-17T08:04:32.972Z,1012.79
2018-05-17T08:05:32.963Z,1012.72
2018-05-17T08:06:32.952Z,1012.78
2018-05-17T08:07:32.943Z,1012.88
2018-05-17T08:08:32.932Z,1012.81
2018-05-17T08:09:32.925Z,1012.79
2018-05-17T08:10:32.915Z,1012.81
2018-05-17T08:11:32.899Z,1013.16
2018-05-17T08:12:32.892Z,1013.18
2018-05-17T08:13:32.879Z,1013.19
2018-05-17T08:14:32.869Z,1013.3
2018-05-17T08:15:32.857Z,1013.2
2018-05-17T08:16:33.053Z,1013.26
2018-05-17T08:17:32.840Z,1013.24
2018-05-17T08:18:32.831Z,1013.25
2018-05-17T08:19:32.821Z,1013.26
2018-05-17T08:20:32.814Z,1013.3
2018-05-17T08:21:32.806Z,1013.27
2018-05-17T08:22:32.799Z,1013.26
2018-05-17T08:23:32.793Z,1013.31
2018-05-17T08:24:32.786Z,1013.33
2018-05-17T08:25:32.782Z,1013.31
2018-05-17T08:26:32.776Z,1012.96
2018-05-17T08:27:32.771Z,1013.06
2018-05-17T08:28:32.764Z,1012.93
2018-05-17T08:29:32.761Z,1012.91
2018-05-17T08:30:32.753Z,1012.95
2018-05-17T08:31:32.748Z,1012.94
2018-05-17T08:32:32.742Z,1012.96
2018-05-17T08:33:32.734Z,1012.92
2018-05-17T08:34:32.734Z,1012.86
2018-05-17T08:35:32.724Z,1012.9
2018-05-17T08:36:32.776Z,1012.89
2018-05-17T08:37:32.715Z,1012.94
2018-05-17T08:38:32.704Z,1012.9
2018-05-17T08:39:32.697Z,1012.91
2018-05-17T08:40:32.688Z,1012.95
2018-05-17T08:41:32.680Z,1012.98
2018-05-17T08:42:32.734Z,1012.94
2018-05-17T08:43:32.663Z,1012.93
2018-05-17T08:44:32.656Z,1012.94
2018-05-17T08:45:32.745Z,1012.91
2018-05-17T08:46:32.640Z,1012.91
2018-05-17T08:47:32.629Z,1013.02
2018-05-17T08:48:32.618Z,1012.91
2018-05-17T08:49:32.611Z,1012.91
2018-05-17T08:50:32.601Z,1012.83
2018-05-17T08:51:32.593Z,1012.86
2018-05-17T08:52:32.583Z,1012.94
2018-05-17T08:53:32.572Z,1012.84
2018-05-17T08:54:32.568Z,1012.93
2018-05-17T08:55:32.555Z,1012.89
2018-05-17T08:56:32.546Z,1012.89
2018-05-17T08:57:32.531Z,1012.89
2018-05-17T08:58:32.521Z,1012.85
2018-05-17T08:59:32.509Z,1012.91
2018-05-17T09:00:32.499Z,1012.9
2018-05-17T09:01:32.487Z,1012.88
2018-05-17T09:02:32.479Z,1012.82
2018-05-17T09:03:32.469Z,1012.83
2018-05-17T09:04:32.455Z,1012.79
2018-05-17T09:05:32.444Z,1012.79
2018-05-17T09:06:32.434Z,1012.81
2018-05-17T09:07:32.423Z,1012.8
2018-05-17T09:08:32.411Z,1012.84
2018-05-17T09:09:32.403Z,1012.8
2018-05-17T09:10:32.392Z,1012.78
2018-05-17T09:11:32.381Z,1012.72
2018-05-17T09:12:32.365Z,1012.82
2018-05-17T09:13:32.415Z,1012.83
2018-05-17T09:14:32.343Z,1012.87
2018-05-17T09:15:32.330Z,1012.76
2018-05-17T09:16:32.321Z,1012.78
2018-05-17T09:17:32.308Z,1012.77
2018-05-17T09:18:32.297Z,1012.79
2018-05-17T09:19:32.285Z,1012.8
2018-05-17T09:20:32.318Z,1012.8
2018-05-17T09:21:32.273Z,1012.86
2018-05-17T09:22:32.252Z,1012.81
2018-05-17T09:23:32.244Z,1012.9
2018-05-17T09:24:32.232Z,1012.82
2018-05-17T09:25:32.218Z,1012.88
2018-05-17T09:26:32.209Z,1012.87
2018-05-17T09:27:32.194Z,1012.97
2018-05-17T09:28:32.184Z,1012.89
2018-05-17T09:29:32.172Z,1012.93
2018-05-17T09:30:32.163Z,1012.98
2018-05-17T09:31:32.150Z,1012.94
2018-05-17T09:32:32.142Z,1012.98
2018-05-17T09:33:32.128Z,1013.02
2018-05-17T09:34:32.115Z,1012.98
2018-05-17T09:35:32.107Z,1013.02
2018-05-17T09:36:32.094Z,1013.03
2018-05-17T09:37:32.083Z,1012.99
2018-05-17T09:38:32.073Z,1012.93
2018-05-17T09:39:32.061Z,1012.93
2018-05-17T09:40:32.053Z,1012.92
2018-05-17T09:41:32.078Z,1012.94
2018-05-17T09:42:32.027Z,1012.92
2018-05-17T09:43:32.017Z,1012.94
2018-05-17T09:44:32.004Z,1013.02
2018-05-17T09:45:31.992Z,1012.91
2018-05-17T09:46:31.986Z,1012.92
2018-05-17T09:47:32.002Z,1012.91
2018-05-17T09:48:31.958Z,1012.94
2018-05-17T09:49:31.947Z,1012.9
2018-05-17T09:50:31.935Z,1012.9
2018-05-17T09:51:31.927Z,1012.88
2018-05-17T09:52:31.915Z,1013
2018-05-17T09:53:31.906Z,1012.91
2018-05-17T09:54:31.894Z,1012.9
2018-05-17T09:55:31.882Z,1012.94
2018-05-17T09:56:31.870Z,1012.91
2018-05-17T09:57:31.862Z,1012.87
2018-05-17T09:58:31.852Z,1012.84
2018-05-17T09:59:31.841Z,1012.87
2018-05-17T10:00:31.829Z,1012.88
2018-05-17T10:01:31.818Z,1012.84
2018-05-17T10:02:31.807Z,1012.82
2018-05-17T10:03:31.796Z,1012.88
2018-05-17T10:04:31.783Z,1012.86
2018-05-17T10:05:31.776Z,1012.81
2018-05-17T10:06:31.763Z,1012.84
2018-05-17T10:07:31.751Z,1012.81
2018-05-17T10:08:31.743Z,1012.8
2018-05-17T10:09:31.732Z,1012.82
2018-05-17T10:10:31.717Z,1012.79
2018-05-17T10:11:31.709Z,1012.77
2018-05-17T10:12:31.697Z,1013
2018-05-17T10:13:31.691Z,1012.78
2018-05-17T10:14:31.754Z,1012.99
2018-05-17T10:15:31.675Z,1012.77
2018-05-17T10:16:31.858Z,1012.88
2018-05-17T10:17:31.644Z,1013.29
2018-05-17T10:18:31.634Z,1013.21
2018-05-17T10:19:31.623Z,1013.24
2018-05-17T10:20:31.613Z,1013.21
2018-05-17T10:21:31.606Z,1013.28
2018-05-17T10:22:31.595Z,1013.25
2018-05-17T10:23:31.589Z,1013.27
2018-05-17T10:24:31.580Z,1013.32
2018-05-17T10:25:31.576Z,1013.25
2018-05-17T10:26:31.567Z,1013.25
2018-05-17T10:27:31.565Z,1013.23
2018-05-17T10:28:31.557Z,1013.32
2018-05-17T10:29:31.585Z,1013.31
2018-05-17T10:30:31.549Z,1013.33
2018-05-17T10:31:31.544Z,1013.29
2018-05-17T10:32:31.538Z,1013.17
2018-05-17T10:33:31.535Z,1013.25
2018-05-17T10:34:31.535Z,1013.26
2018-05-17T10:35:31.533Z,1013.2
2018-05-17T10:36:31.538Z,1013.21
2018-05-17T10:37:31.528Z,1013.19
2018-05-17T10:38:31.524Z,1013.21
2018-05-17T10:39:31.522Z,1013.18
2018-05-17T10:40:31.522Z,1013.13
2018-05-17T10:41:31.521Z,1013.07
2018-05-17T10:42:31.523Z,1012.99
2018-05-17T10:43:31.519Z,1012.92
2018-05-17T10:44:31.518Z,1012.92
2018-05-17T10:45:31.520Z,1012.84
2018-05-17T10:46:31.521Z,1012.88
2018-05-17T10:47:31.521Z,1012.87
2018-05-17T10:48:31.521Z,1012.91
2018-05-17T10:49:31.524Z,1012.96
2018-05-17T10:50:31.522Z,1012.88
2018-05-17T10:51:31.524Z,1012.9
2018-05-17T10:52:31.526Z,1012.87
2018-05-17T10:53:31.527Z,1012.84
2018-05-17T10:54:31.583Z,1012.85
2018-05-17T10:55:31.534Z,1012.83
2018-05-17T10:56:31.532Z,1012.84
2018-05-17T10:57:31.626Z,1012.82
2018-05-17T10:58:31.541Z,1012.85
2018-05-17T10:59:31.539Z,1012.91
2018-05-17T11:00:31.541Z,1012.85
2018-05-17T11:01:31.543Z,1012.87
2018-05-17T11:02:31.628Z,1012.86
2018-05-17T11:03:31.547Z,1012.9
2018-05-17T11:04:31.551Z,1012.84
2018-05-17T11:05:31.553Z,1012.86
2018-05-17T11:06:31.555Z,1012.84
2018-05-17T11:07:31.560Z,1012.87
2018-05-17T11:08:31.565Z,1012.92
2018-05-17T11:09:31.566Z,1012.87
2018-05-17T11:10:31.568Z,1012.91
2018-05-17T11:11:31.572Z,1012.89
2018-05-17T11:12:31.574Z,1012.91
2018-05-17T11:13:31.597Z,1012.92
2018-05-17T11:14:31.582Z,1012.93
2018-05-17T11:15:31.583Z,1012.92
2018-05-17T11:16:31.586Z,1012.89
2018-05-17T11:17:31.591Z,1012.92
2018-05-17T11:18:31.594Z,1012.94
2018-05-17T11:19:31.596Z,1012.9
2018-05-17T11:20:31.601Z,1012.86
2018-05-17T11:21:31.604Z,1012.85
2018-05-17T11:22:31.606Z,1012.8
2018-05-17T11:23:31.608Z,1012.81
2018-05-17T11:24:31.611Z,1012.82
2018-05-17T11:25:31.618Z,1012.82
2018-05-17T11:26:31.619Z,1012.79
2018-05-17T11:27:31.621Z,1012.82
2018-05-17T11:28:31.625Z,1012.75
2018-05-17T11:29:31.630Z,1012.8
2018-05-17T11:30:31.634Z,1012.83
2018-05-17T11:31:31.637Z,1012.82
2018-05-17T11:32:31.640Z,1012.7
2018-05-17T11:33:31.644Z,1012.76
2018-05-17T11:34:31.651Z,1012.77
2018-05-17T11:35:31.650Z,1012.73
2018-05-17T11:36:31.655Z,1012.7
2018-05-17T11:37:31.659Z,1012.7
2018-05-17T11:38:31.696Z,1012.68
2018-05-17T11:39:31.665Z,1012.68
2018-05-17T11:40:31.671Z,1012.66
2018-05-17T11:41:31.677Z,1012.66
2018-05-17T11:42:31.677Z,1012.65
2018-05-17T11:43:31.681Z,1012.6
2018-05-17T11:44:31.691Z,1012.57
2018-05-17T11:45:31.691Z,1012.58
2018-05-17T11:46:31.692Z,1012.52
2018-05-17T11:47:31.697Z,1012.53
2018-05-17T11:48:31.702Z,1012.57
2018-05-17T11:49:31.706Z,1012.61
2018-05-17T11:50:31.773Z,1012.57
2018-05-17T11:51:31.714Z,1012.61
2018-05-17T11:52:31.722Z,1012.61
2018-05-17T11:53:31.722Z,1012.5
2018-05-17T11:54:31.733Z,1012.52
2018-05-17T11:55:31.744Z,1012.54
2018-05-17T11:56:31.736Z,1012.46
2018-05-17T11:57:31.741Z,1012.56
2018-05-17T11:58:31.748Z,1012.55
2018-05-17T11:59:31.752Z,1012.61
2018-05-17T12:00:31.754Z,1012.56
2018-05-17T12:01:31.803Z,1012.6
2018-05-17T12:02:31.764Z,1012.62
2018-05-17T12:03:31.769Z,1012.6
2018-05-17T12:04:31.783Z,1012.54
2018-05-17T12:05:31.773Z,1012.62
2018-05-17T12:06:31.778Z,1012.64
2018-05-17T12:07:31.873Z,1012.62
2018-05-17T12:08:31.787Z,1012.6